sensor_id;sensor_type;location;lat;lon;timestamp;P1;durP1;ratioP1;P2;durP2;ratioP2
22332;SDS011;11334;36.986;-121.936;2022-12-07T00:01:06;0.98;;;0.77;;
22332;SDS011;11334;36.986;-121.936;2022-12-07T00:03:33;3.78;;;0.90;;
22332;SDS011;11334;36.986;-121.936;2022-12-07T00:06:00;2.25;;;0.65;;
22332;SDS011;11334;36.986;-121.936;2022-12-07T00:08:27;0.77;;;0.50;;
22332;SDS011;11334;36.986;-121.936;2022-12-07T00:10:54;2.80;;;0.60;;
22332;SDS011;11334;36.986;-121.936;2022-12-07T00:13:20;2.90;;;0.60;;
22332;SDS011;11334;36.986;-121.936;2022-12-07T00:15:47;1.45;;;0.82;;
22332;SDS011;11334;36.986;-121.936;2022-12-07T00:18:13;3.20;;;0.60;;
22332;SDS011;11334;36.986;-121.936;2022-12-07T00:20:39;0.85;;;0.40;;
22332;SDS011;11334;36.986;-121.936;2022-12-07T00:23:05;0.95;;;0.35;;
22332;SDS011;11334;36.986;-121.936;2022-12-07T00:25:31;1.02;;;0.60;;
22332;SDS011;11334;36.986;-121.936;2022-12-07T00:27:58;1.75;;;0.60;;
22332;SDS011;11334;36.986;-121.936;2022-12-07T00:30:24;1.30;;;0.45;;
22332;SDS011;11334;36.986;-121.936;2022-12-07T00:32:50;1.58;;;0.30;;
22332;SDS011;11334;36.986;-121.936;2022-12-07T00:35:16;1.20;;;0.50;;
22332;SDS011;11334;36.986;-121.936;2022-12-07T00:37:42;2.17;;;0.68;;
22332;SDS011;11334;36.986;-121.936;2022-12-07T00:40:09;2.25;;;0.70;;
22332;SDS011;11334;36.986;-121.936;2022-12-07T00:42:35;1.70;;;0.65;;
22332;SDS011;11334;36.986;-121.936;2022-12-07T00:45:01;0.63;;;0.57;;
22332;SDS011;11334;36.986;-121.936;2022-12-07T00:47:28;0.93;;;0.60;;
22332;SDS011;11334;36.986;-121.936;2022-12-07T00:49:54;2.97;;;0.75;;
22332;SDS011;11334;36.986;-121.936;2022-12-07T00:52:20;1.27;;;0.60;;
22332;SDS011;11334;36.986;-121.936;2022-12-07T00:54:46;0.77;;;0.50;;
22332;SDS011;11334;36.986;-121.936;2022-12-07T00:57:13;2.03;;;0.60;;
22332;SDS011;11334;36.986;-121.936;2022-12-07T00:59:39;0.50;;;0.50;;
22332;SDS011;11334;36.986;-121.936;2022-12-07T01:02:05;2.08;;;0.70;;
22332;SDS011;11334;36.986;-121.936;2022-12-07T01:04:33;2.30;;;0.47;;
22332;SDS011;11334;36.986;-121.936;2022-12-07T01:06:59;0.45;;;0.43;;
22332;SDS011;11334;36.986;-121.936;2022-12-07T01:09:25;1.33;;;0.70;;
22332;SDS011;11334;36.986;-121.936;2022-12-07T01:11:52;0.63;;;0.50;;
22332;SDS011;11334;36.986;-121.936;2022-12-07T01:14:18;0.73;;;0.68;;
22332;SDS011;11334;36.986;-121.936;2022-12-07T01:16:44;2.28;;;0.70;;
22332;SDS011;11334;36.986;-121.936;2022-12-07T01:19:10;1.73;;;0.60;;
22332;SDS011;11334;36.986;-121.936;2022-12-07T01:21:36;1.10;;;0.90;;
22332;SDS011;11334;36.986;-121.936;2022-12-07T01:24:05;1.20;;;0.93;;
22332;SDS011;11334;36.986;-121.936;2022-12-07T01:26:33;2.95;;;0.93;;
22332;SDS011;11334;36.986;-121.936;2022-12-07T01:28:59;0.98;;;0.88;;
22332;SDS011;11334;36.986;-121.936;2022-12-07T01:31:26;2.45;;;1.10;;
22332;SDS011;11334;36.986;-121.936;2022-12-07T01:33:55;1.63;;;1.50;;
22332;SDS011;11334;36.986;-121.936;2022-12-07T01:36:23;2.65;;;2.10;;
22332;SDS011;11334;36.986;-121.936;2022-12-07T01:38:54;2.97;;;1.80;;
22332;SDS011;11334;36.986;-121.936;2022-12-07T01:41:21;4.43;;;1.75;;
22332;SDS011;11334;36.986;-121.936;2022-12-07T01:46:43;3.80;;;1.30;;
22332;SDS011;11334;36.986;-121.936;2022-12-07T01:49:33;1.67;;;1.40;;
22332;SDS011;11334;36.986;-121.936;2022-12-07T01:54:42;4.30;;;1.65;;
22332;SDS011;11334;36.986;-121.936;2022-12-07T01:57:11;4.05;;;1.33;;
22332;SDS011;11334;36.986;-121.936;2022-12-07T01:59:41;2.95;;;1.30;;
22332;SDS011;11334;36.986;-121.936;2022-12-07T02:02:13;1.42;;;1.10;;
22332;SDS011;11334;36.986;-121.936;2022-12-07T02:04:45;1.55;;;1.45;;
22332;SDS011;11334;36.986;-121.936;2022-12-07T02:07:14;2.00;;;0.93;;
22332;SDS011;11334;36.986;-121.936;2022-12-07T02:09:41;2.85;;;1.33;;
22332;SDS011;11334;36.986;-121.936;2022-12-07T02:12:08;3.75;;;1.23;;
22332;SDS011;11334;36.986;-121.936;2022-12-07T02:14:35;2.28;;;1.30;;
22332;SDS011;11334;36.986;-121.936;2022-12-07T02:17:08;2.05;;;1.30;;
22332;SDS011;11334;36.986;-121.936;2022-12-07T02:27:57;2.67;;;1.20;;
22332;SDS011;11334;36.986;-121.936;2022-12-07T02:30:46;2.05;;;1.20;;
22332;SDS011;11334;36.986;-121.936;2022-12-07T02:33:16;1.70;;;1.45;;
22332;SDS011;11334;36.986;-121.936;2022-12-07T02:35:54;6.10;;;1.75;;
22332;SDS011;11334;36.986;-121.936;2022-12-07T02:38:28;4.35;;;1.75;;
22332;SDS011;11334;36.986;-121.936;2022-12-07T02:41:07;2.47;;;1.38;;
22332;SDS011;11334;36.986;-121.936;2022-12-07T02:43:39;3.85;;;1.55;;
22332;SDS011;11334;36.986;-121.936;2022-12-07T02:46:14;3.45;;;1.88;;
22332;SDS011;11334;36.986;-121.936;2022-12-07T02:48:46;3.25;;;1.42;;
22332;SDS011;11334;36.986;-121.936;2022-12-07T02:51:14;3.58;;;1.60;;
22332;SDS011;11334;36.986;-121.936;2022-12-07T02:53:44;2.42;;;1.80;;
22332;SDS011;11334;36.986;-121.936;2022-12-07T02:56:22;2.22;;;1.55;;
22332;SDS011;11334;36.986;-121.936;2022-12-07T03:07:09;3.10;;;1.58;;
22332;SDS011;11334;36.986;-121.936;2022-12-07T03:09:39;1.85;;;1.35;;
22332;SDS011;11334;36.986;-121.936;2022-12-07T03:12:31;2.72;;;1.55;;
22332;SDS011;11334;36.986;-121.936;2022-12-07T03:15:27;5.13;;;1.30;;
22332;SDS011;11334;36.986;-121.936;2022-12-07T03:18:09;4.35;;;1.30;;
22332;SDS011;11334;36.986;-121.936;2022-12-07T03:20:41;2.28;;;1.15;;
22332;SDS011;11334;36.986;-121.936;2022-12-07T03:23:12;2.35;;;1.30;;
22332;SDS011;11334;36.986;-121.936;2022-12-07T03:25:43;2.45;;;1.10;;
22332;SDS011;11334;36.986;-121.936;2022-12-07T03:28:14;5.30;;;3.10;;
22332;SDS011;11334;36.986;-121.936;2022-12-07T03:30:49;4.07;;;3.67;;
22332;SDS011;11334;36.986;-121.936;2022-12-07T03:33:56;6.70;;;3.75;;
22332;SDS011;11334;36.986;-121.936;2022-12-07T03:36:52;5.70;;;3.35;;
22332;SDS011;11334;36.986;-121.936;2022-12-07T03:42:04;4.68;;;3.30;;
22332;SDS011;11334;36.986;-121.936;2022-12-07T03:44:32;4.95;;;2.70;;
22332;SDS011;11334;36.986;-121.936;2022-12-07T03:49:43;2.58;;;2.28;;
22332;SDS011;11334;36.986;-121.936;2022-12-07T03:54:56;6.30;;;3.38;;
22332;SDS011;11334;36.986;-121.936;2022-12-07T03:57:40;5.28;;;3.60;;
22332;SDS011;11334;36.986;-121.936;2022-12-07T04:00:09;3.67;;;3.35;;
22332;SDS011;11334;36.986;-121.936;2022-12-07T04:02:36;5.80;;;4.65;;
22332;SDS011;11334;36.986;-121.936;2022-12-07T04:05:03;8.02;;;4.43;;
22332;SDS011;11334;36.986;-121.936;2022-12-07T04:07:30;5.35;;;4.05;;
22332;SDS011;11334;36.986;-121.936;2022-12-07T04:09:56;4.03;;;3.00;;
22332;SDS011;11334;36.986;-121.936;2022-12-07T04:12:22;4.55;;;2.70;;
22332;SDS011;11334;36.986;-121.936;2022-12-07T04:14:49;3.20;;;2.30;;
22332;SDS011;11334;36.986;-121.936;2022-12-07T04:17:15;3.05;;;2.28;;
22332;SDS011;11334;36.986;-121.936;2022-12-07T04:19:42;3.10;;;2.13;;
22332;SDS011;11334;36.986;-121.936;2022-12-07T04:22:08;4.20;;;2.38;;
22332;SDS011;11334;36.986;-121.936;2022-12-07T04:24:34;3.83;;;2.72;;
22332;SDS011;11334;36.986;-121.936;2022-12-07T04:27:01;2.97;;;1.90;;
22332;SDS011;11334;36.986;-121.936;2022-12-07T04:29:28;2.95;;;2.05;;
22332;SDS011;11334;36.986;-121.936;2022-12-07T04:31:54;2.35;;;1.98;;
22332;SDS011;11334;36.986;-121.936;2022-12-07T04:34:20;3.63;;;1.90;;
22332;SDS011;11334;36.986;-121.936;2022-12-07T04:36:47;3.80;;;2.30;;
22332;SDS011;11334;36.986;-121.936;2022-12-07T04:39:18;3.65;;;2.33;;
22332;SDS011;11334;36.986;-121.936;2022-12-07T04:41:48;4.93;;;2.60;;
22332;SDS011;11334;36.986;-121.936;2022-12-07T04:44:15;5.97;;;3.13;;
22332;SDS011;11334;36.986;-121.936;2022-12-07T04:46:42;3.78;;;2.83;;
22332;SDS011;11334;36.986;-121.936;2022-12-07T04:49:09;6.38;;;3.17;;
22332;SDS011;11334;36.986;-121.936;2022-12-07T04:51:36;5.10;;;2.90;;
22332;SDS011;11334;36.986;-121.936;2022-12-07T04:54:02;4.53;;;2.83;;
22332;SDS011;11334;36.986;-121.936;2022-12-07T04:56:29;5.25;;;2.72;;
22332;SDS011;11334;36.986;-121.936;2022-12-07T04:58:55;5.47;;;2.33;;
22332;SDS011;11334;36.986;-121.936;2022-12-07T05:01:22;4.07;;;1.75;;
22332;SDS011;11334;36.986;-121.936;2022-12-07T05:03:49;5.18;;;1.83;;
22332;SDS011;11334;36.986;-121.936;2022-12-07T05:06:16;5.10;;;1.80;;
22332;SDS011;11334;36.986;-121.936;2022-12-07T05:08:42;5.15;;;1.75;;
22332;SDS011;11334;36.986;-121.936;2022-12-07T05:11:09;3.70;;;2.17;;
22332;SDS011;11334;36.986;-121.936;2022-12-07T05:13:55;5.30;;;1.75;;
22332;SDS011;11334;36.986;-121.936;2022-12-07T05:16:22;2.03;;;1.60;;
22332;SDS011;11334;36.986;-121.936;2022-12-07T05:18:48;2.13;;;1.42;;
22332;SDS011;11334;36.986;-121.936;2022-12-07T05:21:14;2.58;;;1.55;;
22332;SDS011;11334;36.986;-121.936;2022-12-07T05:23:40;2.90;;;1.33;;
22332;SDS011;11334;36.986;-121.936;2022-12-07T05:26:07;2.03;;;1.83;;
22332;SDS011;11334;36.986;-121.936;2022-12-07T05:28:33;4.63;;;1.42;;
22332;SDS011;11334;36.986;-121.936;2022-12-07T05:30:59;5.03;;;1.63;;
22332;SDS011;11334;36.986;-121.936;2022-12-07T05:33:25;3.95;;;1.50;;
22332;SDS011;11334;36.986;-121.936;2022-12-07T05:35:52;2.05;;;1.38;;
22332;SDS011;11334;36.986;-121.936;2022-12-07T05:38:18;1.50;;;1.40;;
22332;SDS011;11334;36.986;-121.936;2022-12-07T05:40:44;10.55;;;1.40;;
22332;SDS011;11334;36.986;-121.936;2022-12-07T05:43:10;2.60;;;1.90;;
22332;SDS011;11334;36.986;-121.936;2022-12-07T05:45:37;2.67;;;1.30;;
22332;SDS011;11334;36.986;-121.936;2022-12-07T05:48:03;2.05;;;1.30;;
22332;SDS011;11334;36.986;-121.936;2022-12-07T05:50:29;4.22;;;1.40;;
22332;SDS011;11334;36.986;-121.936;2022-12-07T05:52:55;1.40;;;1.00;;
22332;SDS011;11334;36.986;-121.936;2022-12-07T05:55:22;2.47;;;1.17;;
22332;SDS011;11334;36.986;-121.936;2022-12-07T05:57:48;1.40;;;1.20;;
22332;SDS011;11334;36.986;-121.936;2022-12-07T06:00:32;4.65;;;1.50;;
22332;SDS011;11334;36.986;-121.936;2022-12-07T06:03:00;1.00;;;0.90;;
22332;SDS011;11334;36.986;-121.936;2022-12-07T06:05:26;3.28;;;1.10;;
22332;SDS011;11334;36.986;-121.936;2022-12-07T06:07:53;4.85;;;1.15;;
22332;SDS011;11334;36.986;-121.936;2022-12-07T06:10:19;5.93;;;1.23;;
22332;SDS011;11334;36.986;-121.936;2022-12-07T06:12:45;2.10;;;1.02;;
22332;SDS011;11334;36.986;-121.936;2022-12-07T06:15:11;2.63;;;1.08;;
22332;SDS011;11334;36.986;-121.936;2022-12-07T06:17:38;1.77;;;1.25;;
22332;SDS011;11334;36.986;-121.936;2022-12-07T06:20:05;2.22;;;1.30;;
22332;SDS011;11334;36.986;-121.936;2022-12-07T06:22:51;3.17;;;1.52;;
22332;SDS011;11334;36.986;-121.936;2022-12-07T06:25:17;4.25;;;2.15;;
22332;SDS011;11334;36.986;-121.936;2022-12-07T06:27:43;3.28;;;2.05;;
22332;SDS011;11334;36.986;-121.936;2022-12-07T06:30:09;2.25;;;1.95;;
22332;SDS011;11334;36.986;-121.936;2022-12-07T06:32:36;2.25;;;1.80;;
22332;SDS011;11334;36.986;-121.936;2022-12-07T06:35:03;2.60;;;2.03;;
22332;SDS011;11334;36.986;-121.936;2022-12-07T06:37:30;11.15;;;2.15;;
22332;SDS011;11334;36.986;-121.936;2022-12-07T06:39:56;4.32;;;2.30;;
22332;SDS011;11334;36.986;-121.936;2022-12-07T06:42:23;5.25;;;1.40;;
22332;SDS011;11334;36.986;-121.936;2022-12-07T06:44:49;4.95;;;2.25;;
22332;SDS011;11334;36.986;-121.936;2022-12-07T06:47:15;10.07;;;2.53;;
22332;SDS011;11334;36.986;-121.936;2022-12-07T06:49:41;1.50;;;1.40;;
22332;SDS011;11334;36.986;-121.936;2022-12-07T06:52:08;4.95;;;1.70;;
22332;SDS011;11334;36.986;-121.936;2022-12-07T06:54:34;2.58;;;1.83;;
22332;SDS011;11334;36.986;-121.936;2022-12-07T06:57:00;3.15;;;1.63;;
22332;SDS011;11334;36.986;-121.936;2022-12-07T06:59:26;3.08;;;1.88;;
22332;SDS011;11334;36.986;-121.936;2022-12-07T07:01:52;4.00;;;2.10;;
22332;SDS011;11334;36.986;-121.936;2022-12-07T07:04:19;3.35;;;1.70;;
22332;SDS011;11334;36.986;-121.936;2022-12-07T07:06:45;2.75;;;1.50;;
22332;SDS011;11334;36.986;-121.936;2022-12-07T07:09:12;1.73;;;1.33;;
22332;SDS011;11334;36.986;-121.936;2022-12-07T07:11:38;3.38;;;1.70;;
22332;SDS011;11334;36.986;-121.936;2022-12-07T07:14:04;1.95;;;1.75;;
22332;SDS011;11334;36.986;-121.936;2022-12-07T07:16:30;2.60;;;1.73;;
22332;SDS011;11334;36.986;-121.936;2022-12-07T07:18:57;3.92;;;1.52;;
22332;SDS011;11334;36.986;-121.936;2022-12-07T07:21:23;4.13;;;1.65;;
22332;SDS011;11334;36.986;-121.936;2022-12-07T07:23:49;1.70;;;1.17;;
22332;SDS011;11334;36.986;-121.936;2022-12-07T07:26:15;2.28;;;1.27;;
22332;SDS011;11334;36.986;-121.936;2022-12-07T07:28:45;2.55;;;1.70;;
22332;SDS011;11334;36.986;-121.936;2022-12-07T07:31:11;3.70;;;1.65;;
22332;SDS011;11334;36.986;-121.936;2022-12-07T07:33:37;3.70;;;1.75;;
22332;SDS011;11334;36.986;-121.936;2022-12-07T07:36:04;3.63;;;1.60;;
22332;SDS011;11334;36.986;-121.936;2022-12-07T07:38:30;3.90;;;1.63;;
22332;SDS011;11334;36.986;-121.936;2022-12-07T07:40:56;4.63;;;1.42;;
22332;SDS011;11334;36.986;-121.936;2022-12-07T07:43:22;4.05;;;1.25;;
22332;SDS011;11334;36.986;-121.936;2022-12-07T07:45:49;1.85;;;1.25;;
22332;SDS011;11334;36.986;-121.936;2022-12-07T07:48:16;3.92;;;1.20;;
22332;SDS011;11334;36.986;-121.936;2022-12-07T07:50:42;1.05;;;0.90;;
22332;SDS011;11334;36.986;-121.936;2022-12-07T07:53:08;2.38;;;0.95;;
22332;SDS011;11334;36.986;-121.936;2022-12-07T07:55:34;2.15;;;1.42;;
22332;SDS011;11334;36.986;-121.936;2022-12-07T07:58:00;1.63;;;0.90;;
22332;SDS011;11334;36.986;-121.936;2022-12-07T08:00:27;2.38;;;1.00;;
22332;SDS011;11334;36.986;-121.936;2022-12-07T08:02:53;3.17;;;1.00;;
22332;SDS011;11334;36.986;-121.936;2022-12-07T08:05:19;3.13;;;1.08;;
22332;SDS011;11334;36.986;-121.936;2022-12-07T08:07:45;2.30;;;0.98;;
22332;SDS011;11334;36.986;-121.936;2022-12-07T08:10:12;3.70;;;1.00;;
22332;SDS011;11334;36.986;-121.936;2022-12-07T08:12:39;1.17;;;0.80;;
22332;SDS011;11334;36.986;-121.936;2022-12-07T08:15:26;1.10;;;0.90;;
22332;SDS011;11334;36.986;-121.936;2022-12-07T08:17:54;1.30;;;0.75;;
22332;SDS011;11334;36.986;-121.936;2022-12-07T08:20:20;1.77;;;0.80;;
22332;SDS011;11334;36.986;-121.936;2022-12-07T08:22:47;5.47;;;0.88;;
22332;SDS011;11334;36.986;-121.936;2022-12-07T08:25:13;5.70;;;1.10;;
22332;SDS011;11334;36.986;-121.936;2022-12-07T08:27:39;1.67;;;0.95;;
22332;SDS011;11334;36.986;-121.936;2022-12-07T08:30:06;3.33;;;0.95;;
22332;SDS011;11334;36.986;-121.936;2022-12-07T08:32:33;1.80;;;1.00;;
22332;SDS011;11334;36.986;-121.936;2022-12-07T08:34:59;4.18;;;1.20;;
22332;SDS011;11334;36.986;-121.936;2022-12-07T08:37:25;1.42;;;0.70;;
22332;SDS011;11334;36.986;-121.936;2022-12-07T08:39:51;1.15;;;0.88;;
22332;SDS011;11334;36.986;-121.936;2022-12-07T08:42:18;2.40;;;1.27;;
22332;SDS011;11334;36.986;-121.936;2022-12-07T08:44:45;1.42;;;1.27;;
22332;SDS011;11334;36.986;-121.936;2022-12-07T08:47:11;2.40;;;1.10;;
22332;SDS011;11334;36.986;-121.936;2022-12-07T08:49:41;1.98;;;1.10;;
22332;SDS011;11334;36.986;-121.936;2022-12-07T08:52:11;4.88;;;0.90;;
22332;SDS011;11334;36.986;-121.936;2022-12-07T08:54:38;5.13;;;1.30;;
22332;SDS011;11334;36.986;-121.936;2022-12-07T08:57:06;3.22;;;0.95;;
22332;SDS011;11334;36.986;-121.936;2022-12-07T08:59:34;1.85;;;1.10;;
22332;SDS011;11334;36.986;-121.936;2022-12-07T09:02:03;1.67;;;0.90;;
22332;SDS011;11334;36.986;-121.936;2022-12-07T09:04:30;6.35;;;1.33;;
22332;SDS011;11334;36.986;-121.936;2022-12-07T09:06:56;6.35;;;1.17;;
22332;SDS011;11334;36.986;-121.936;2022-12-07T09:09:23;5.10;;;1.20;;
22332;SDS011;11334;36.986;-121.936;2022-12-07T09:11:49;2.80;;;1.10;;
22332;SDS011;11334;36.986;-121.936;2022-12-07T09:14:15;1.38;;;0.93;;
22332;SDS011;11334;36.986;-121.936;2022-12-07T09:16:42;1.27;;;0.70;;
22332;SDS011;11334;36.986;-121.936;2022-12-07T09:19:08;1.85;;;0.88;;
22332;SDS011;11334;36.986;-121.936;2022-12-07T09:21:35;2.05;;;0.80;;
22332;SDS011;11334;36.986;-121.936;2022-12-07T09:24:01;0.95;;;0.73;;
22332;SDS011;11334;36.986;-121.936;2022-12-07T09:26:27;3.90;;;0.80;;
22332;SDS011;11334;36.986;-121.936;2022-12-07T09:28:53;2.03;;;0.82;;
22332;SDS011;11334;36.986;-121.936;2022-12-07T09:31:19;3.03;;;0.85;;
22332;SDS011;11334;36.986;-121.936;2022-12-07T09:33:45;3.80;;;0.60;;
22332;SDS011;11334;36.986;-121.936;2022-12-07T09:36:12;0.90;;;0.70;;
22332;SDS011;11334;36.986;-121.936;2022-12-07T09:38:38;0.90;;;0.60;;
22332;SDS011;11334;36.986;-121.936;2022-12-07T09:41:05;2.80;;;1.00;;
22332;SDS011;11334;36.986;-121.936;2022-12-07T09:43:33;0.80;;;0.70;;
22332;SDS011;11334;36.986;-121.936;2022-12-07T09:46:02;2.00;;;0.85;;
22332;SDS011;11334;36.986;-121.936;2022-12-07T09:48:30;2.58;;;0.70;;
22332;SDS011;11334;36.986;-121.936;2022-12-07T09:50:58;3.15;;;0.80;;
22332;SDS011;11334;36.986;-121.936;2022-12-07T09:55:54;1.25;;;0.60;;
22332;SDS011;11334;36.986;-121.936;2022-12-07T09:58:24;3.03;;;0.95;;
22332;SDS011;11334;36.986;-121.936;2022-12-07T10:00:56;1.27;;;0.80;;
22332;SDS011;11334;36.986;-121.936;2022-12-07T10:03:29;1.38;;;0.73;;
22332;SDS011;11334;36.986;-121.936;2022-12-07T10:05:55;1.77;;;0.60;;
22332;SDS011;11334;36.986;-121.936;2022-12-07T10:08:22;4.00;;;0.80;;
22332;SDS011;11334;36.986;-121.936;2022-12-07T10:10:51;1.02;;;0.73;;
22332;SDS011;11334;36.986;-121.936;2022-12-07T10:13:22;0.40;;;0.40;;
22332;SDS011;11334;36.986;-121.936;2022-12-07T10:16:00;3.65;;;0.80;;
22332;SDS011;11334;36.986;-121.936;2022-12-07T10:18:34;2.00;;;0.80;;
22332;SDS011;11334;36.986;-121.936;2022-12-07T10:21:19;2.83;;;0.80;;
22332;SDS011;11334;36.986;-121.936;2022-12-07T10:24:05;4.13;;;0.80;;
22332;SDS011;11334;36.986;-121.936;2022-12-07T10:31:50;2.20;;;0.90;;
22332;SDS011;11334;36.986;-121.936;2022-12-07T10:34:24;0.80;;;0.77;;
22332;SDS011;11334;36.986;-121.936;2022-12-07T10:36:54;1.80;;;0.70;;
22332;SDS011;11334;36.986;-121.936;2022-12-07T10:39:40;1.35;;;0.80;;
22332;SDS011;11334;36.986;-121.936;2022-12-07T10:42:18;1.80;;;1.00;;
22332;SDS011;11334;36.986;-121.936;2022-12-07T10:44:45;2.53;;;0.90;;
22332;SDS011;11334;36.986;-121.936;2022-12-07T10:58:43;1.05;;;0.80;;
22332;SDS011;11334;36.986;-121.936;2022-12-07T11:19:16;3.08;;;0.88;;
22332;SDS011;11334;36.986;-121.936;2022-12-07T11:27:41;0.88;;;0.80;;
22332;SDS011;11334;36.986;-121.936;2022-12-07T11:30:26;7.32;;;0.98;;
22332;SDS011;11334;36.986;-121.936;2022-12-07T11:33:09;2.05;;;0.63;;
22332;SDS011;11334;36.986;-121.936;2022-12-07T11:38:41;1.35;;;0.50;;
22332;SDS011;11334;36.986;-121.936;2022-12-07T11:41:17;2.00;;;0.57;;
22332;SDS011;11334;36.986;-121.936;2022-12-07T11:43:54;1.40;;;0.57;;
22332;SDS011;11334;36.986;-121.936;2022-12-07T11:46:53;1.95;;;0.70;;
22332;SDS011;11334;36.986;-121.936;2022-12-07T11:52:09;1.85;;;0.93;;
22332;SDS011;11334;36.986;-121.936;2022-12-07T11:54:51;2.30;;;0.70;;
22332;SDS011;11334;36.986;-121.936;2022-12-07T12:00:17;1.38;;;0.82;;
22332;SDS011;11334;36.986;-121.936;2022-12-07T12:05:22;3.38;;;1.23;;
22332;SDS011;11334;36.986;-121.936;2022-12-07T12:07:52;1.50;;;1.08;;
22332;SDS011;11334;36.986;-121.936;2022-12-07T12:11:00;1.40;;;0.80;;
22332;SDS011;11334;36.986;-121.936;2022-12-07T12:13:51;0.82;;;0.60;;
22332;SDS011;11334;36.986;-121.936;2022-12-07T12:22:38;1.35;;;0.95;;
22332;SDS011;11334;36.986;-121.936;2022-12-07T12:25:17;1.00;;;0.80;;
22332;SDS011;11334;36.986;-121.936;2022-12-07T12:27:55;0.38;;;0.38;;
22332;SDS011;11334;36.986;-121.936;2022-12-07T12:30:25;1.77;;;0.52;;
22332;SDS011;11334;36.986;-121.936;2022-12-07T12:33:03;2.47;;;0.70;;
22332;SDS011;11334;36.986;-121.936;2022-12-07T12:35:42;3.00;;;0.70;;
22332;SDS011;11334;36.986;-121.936;2022-12-07T12:38:25;1.15;;;0.68;;
22332;SDS011;11334;36.986;-121.936;2022-12-07T12:46:55;3.65;;;0.80;;
22332;SDS011;11334;36.986;-121.936;2022-12-07T12:54:59;0.98;;;0.65;;
22332;SDS011;11334;36.986;-121.936;2022-12-07T12:57:32;2.03;;;0.95;;
22332;SDS011;11334;36.986;-121.936;2022-12-07T12:59:59;1.95;;;0.82;;
22332;SDS011;11334;36.986;-121.936;2022-12-07T13:02:29;0.65;;;0.65;;
22332;SDS011;11334;36.986;-121.936;2022-12-07T13:05:14;1.83;;;0.73;;
22332;SDS011;11334;36.986;-121.936;2022-12-07T13:12:59;1.67;;;0.80;;
22332;SDS011;11334;36.986;-121.936;2022-12-07T13:18:23;8.50;;;0.63;;
22332;SDS011;11334;36.986;-121.936;2022-12-07T13:20:51;0.70;;;0.70;;
22332;SDS011;11334;36.986;-121.936;2022-12-07T13:23:31;0.88;;;0.63;;
22332;SDS011;11334;36.986;-121.936;2022-12-07T13:28:37;2.60;;;0.68;;
22332;SDS011;11334;36.986;-121.936;2022-12-07T13:33:42;0.77;;;0.73;;
22332;SDS011;11334;36.986;-121.936;2022-12-07T13:36:32;2.00;;;0.60;;
22332;SDS011;11334;36.986;-121.936;2022-12-07T13:39:10;1.02;;;0.73;;
22332;SDS011;11334;36.986;-121.936;2022-12-07T13:41:43;1.30;;;0.70;;
22332;SDS011;11334;36.986;-121.936;2022-12-07T13:44:15;1.40;;;0.80;;
22332;SDS011;11334;36.986;-121.936;2022-12-07T13:49:24;0.77;;;0.77;;
22332;SDS011;11334;36.986;-121.936;2022-12-07T13:51:53;1.73;;;0.93;;
22332;SDS011;11334;36.986;-121.936;2022-12-07T13:54:20;1.30;;;0.70;;
22332;SDS011;11334;36.986;-121.936;2022-12-07T13:56:48;1.75;;;0.82;;
22332;SDS011;11334;36.986;-121.936;2022-12-07T13:59:18;3.33;;;0.90;;
22332;SDS011;11334;36.986;-121.936;2022-12-07T14:01:47;0.85;;;0.80;;
22332;SDS011;11334;36.986;-121.936;2022-12-07T14:04:19;1.15;;;0.68;;
22332;SDS011;11334;36.986;-121.936;2022-12-07T14:06:51;4.07;;;1.05;;
22332;SDS011;11334;36.986;-121.936;2022-12-07T14:09:19;3.60;;;1.25;;
22332;SDS011;11334;36.986;-121.936;2022-12-07T14:11:48;2.70;;;1.05;;
22332;SDS011;11334;36.986;-121.936;2022-12-07T14:14:26;3.05;;;1.27;;
22332;SDS011;11334;36.986;-121.936;2022-12-07T14:17:00;4.20;;;1.25;;
22332;SDS011;11334;36.986;-121.936;2022-12-07T14:19:47;6.63;;;1.30;;
22332;SDS011;11334;36.986;-121.936;2022-12-07T14:24:50;1.52;;;1.20;;
22332;SDS011;11334;36.986;-121.936;2022-12-07T14:27:17;3.03;;;1.83;;
22332;SDS011;11334;36.986;-121.936;2022-12-07T14:29:50;4.13;;;1.70;;
22332;SDS011;11334;36.986;-121.936;2022-12-07T14:32:19;3.67;;;1.70;;
22332;SDS011;11334;36.986;-121.936;2022-12-07T14:34:54;6.78;;;1.73;;
22332;SDS011;11334;36.986;-121.936;2022-12-07T14:37:25;1.60;;;1.40;;
22332;SDS011;11334;36.986;-121.936;2022-12-07T14:39:52;2.83;;;1.77;;
22332;SDS011;11334;36.986;-121.936;2022-12-07T14:42:18;2.08;;;1.33;;
22332;SDS011;11334;36.986;-121.936;2022-12-07T14:44:45;4.22;;;1.38;;
22332;SDS011;11334;36.986;-121.936;2022-12-07T14:47:12;1.65;;;1.02;;
22332;SDS011;11334;36.986;-121.936;2022-12-07T14:49:38;2.20;;;1.10;;
22332;SDS011;11334;36.986;-121.936;2022-12-07T14:52:05;4.13;;;1.05;;
22332;SDS011;11334;36.986;-121.936;2022-12-07T14:54:36;3.58;;;0.85;;
22332;SDS011;11334;36.986;-121.936;2022-12-07T14:57:02;1.92;;;0.80;;
22332;SDS011;11334;36.986;-121.936;2022-12-07T14:59:28;1.38;;;1.23;;
22332;SDS011;11334;36.986;-121.936;2022-12-07T15:01:54;0.75;;;0.75;;
22332;SDS011;11334;36.986;-121.936;2022-12-07T15:04:21;3.33;;;1.10;;
22332;SDS011;11334;36.986;-121.936;2022-12-07T15:06:56;1.95;;;0.80;;
22332;SDS011;11334;36.986;-121.936;2022-12-07T15:09:23;3.63;;;1.00;;
22332;SDS011;11334;36.986;-121.936;2022-12-07T15:11:50;2.30;;;1.10;;
22332;SDS011;11334;36.986;-121.936;2022-12-07T15:14:16;1.65;;;1.15;;
22332;SDS011;11334;36.986;-121.936;2022-12-07T15:16:42;2.22;;;1.75;;
22332;SDS011;11334;36.986;-121.936;2022-12-07T15:19:19;2.83;;;2.20;;
22332;SDS011;11334;36.986;-121.936;2022-12-07T15:21:48;2.40;;;2.20;;
22332;SDS011;11334;36.986;-121.936;2022-12-07T15:24:15;3.08;;;2.00;;
22332;SDS011;11334;36.986;-121.936;2022-12-07T15:26:41;3.97;;;1.90;;
22332;SDS011;11334;36.986;-121.936;2022-12-07T15:29:08;3.08;;;1.50;;
22332;SDS011;11334;36.986;-121.936;2022-12-07T15:31:35;2.03;;;1.33;;
22332;SDS011;11334;36.986;-121.936;2022-12-07T15:34:04;1.90;;;0.90;;
22332;SDS011;11334;36.986;-121.936;2022-12-07T15:36:31;2.17;;;1.38;;
22332;SDS011;11334;36.986;-121.936;2022-12-07T15:38:59;1.83;;;1.00;;
22332;SDS011;11334;36.986;-121.936;2022-12-07T15:41:25;2.05;;;1.30;;
22332;SDS011;11334;36.986;-121.936;2022-12-07T15:43:52;9.85;;;1.30;;
22332;SDS011;11334;36.986;-121.936;2022-12-07T15:46:38;1.95;;;1.30;;
22332;SDS011;11334;36.986;-121.936;2022-12-07T15:49:15;3.67;;;1.20;;
22332;SDS011;11334;36.986;-121.936;2022-12-07T15:51:43;2.45;;;1.17;;
22332;SDS011;11334;36.986;-121.936;2022-12-07T15:54:19;1.27;;;1.10;;
22332;SDS011;11334;36.986;-121.936;2022-12-07T15:56:50;1.67;;;1.10;;
22332;SDS011;11334;36.986;-121.936;2022-12-07T15:59:16;1.55;;;1.45;;
22332;SDS011;11334;36.986;-121.936;2022-12-07T16:01:43;4.22;;;1.20;;
22332;SDS011;11334;36.986;-121.936;2022-12-07T16:04:09;1.40;;;1.00;;
22332;SDS011;11334;36.986;-121.936;2022-12-07T16:06:36;1.98;;;1.00;;
22332;SDS011;11334;36.986;-121.936;2022-12-07T16:09:03;3.30;;;1.55;;
22332;SDS011;11334;36.986;-121.936;2022-12-07T16:11:29;6.45;;;1.30;;
22332;SDS011;11334;36.986;-121.936;2022-12-07T16:13:57;1.70;;;1.23;;
22332;SDS011;11334;36.986;-121.936;2022-12-07T16:16:23;2.10;;;1.27;;
22332;SDS011;11334;36.986;-121.936;2022-12-07T16:18:49;3.30;;;1.60;;
22332;SDS011;11334;36.986;-121.936;2022-12-07T16:21:16;4.80;;;1.17;;
22332;SDS011;11334;36.986;-121.936;2022-12-07T16:23:43;2.95;;;1.63;;